This is the latest recevied weather packets stored in our database for station/object N0TKN. If no packets are shown the sender has not sent any weather packets the latest 1 day(s).
| Time | Temp. | Humidity | Pressure | Rain* | Wind** | Luminosity | Snow |
|---|---|---|---|---|---|---|---|
| 1836274391 | 21.11° C | 90% | 1016 hPa | 0 mm | 0 m/s | 0 W/m² | - |
| 1836274241 | 20.56° C | 91% | 1015.8 hPa | 0 mm | 0 m/s | 0 W/m² | - |
| 1778057129 | 7.78° C | 99% | 1012.9 hPa | 1.27 mm | 0 m/s | 0 W/m² | - |
| 1778056529 | 7.78° C | 99% | 1013.1 hPa | 1.78 mm | 0.45 m/s, 301° | 0 W/m² | - |
| 1778055929 | 7.78° C | 99% | 1013.3 hPa | 2.03 mm | 0.89 m/s, 296° | 0 W/m² | - |
| 1778055320 | 7.22° C | 99% | 1013.5 hPa | 2.03 mm | 0.89 m/s, 288° | 0 W/m² | - |
| 1778054729 | 7.22° C | 99% | 1013.6 hPa | 1.78 mm | 0.89 m/s, 225° | 0 W/m² | - |
| 1778054129 | 7.22° C | 99% | 1013.7 hPa | 1.52 mm | 0.89 m/s, 243° | 0 W/m² | - |
| 1778053529 | 7.22° C | 99% | 1013.6 hPa | 0.76 mm | 0.45 m/s, 34° | 0 W/m² | - |
| 1778052930 | 7.22° C | 99% | 1013.6 hPa | 0.25 mm | 0 m/s | 0 W/m² | - |
| 1778052329 | 7.22° C | 99% | 1013.3 hPa | 0 mm | 0.45 m/s, 197° | 0 W/m² | - |
| 1778051730 | 7.22° C | 99% | 1013.5 hPa | 0 mm | 0.45 m/s, 229° | 0 W/m² | - |
| 1778051116 | 7.22° C | 99% | 1013.4 hPa | 0 mm | 0 m/s | 0 W/m² | - |
| 1778050516 | 7.22° C | 99% | 1013.3 hPa | 0 mm | 0 m/s | 0 W/m² | - |
| 1778049916 | 7.22° C | 99% | 1013.5 hPa | 0 mm | 0 m/s | 0 W/m² | - |
| 1778049316 | 7.22° C | 99% | 1013.4 hPa | 0 mm | 0.45 m/s, 302° | 0 W/m² | - |
| 1778048716 | 7.22° C | 99% | 1013.3 hPa | 0.76 mm | 0 m/s | 0 W/m² | - |
| 1778048116 | 7.22° C | 99% | 1013.2 hPa | 0.76 mm | 0 m/s | 0 W/m² | - |
| 1778047517 | 7.22° C | 99% | 1013.1 hPa | 0.76 mm | 0 m/s | 0 W/m² | - |
| 1778046917 | 7.22° C | 99% | 1013.1 hPa | 0.76 mm | 0.45 m/s, 288° | 0 W/m² | - |
| 1778046317 | 7.22° C | 99% | 1013.2 hPa | 0.76 mm | 0.45 m/s, 259° | 0 W/m² | - |
| 1778045717 | 7.22° C | 99% | 1013 hPa | 0.76 mm | 0 m/s | 0 W/m² | - |
| 1778045117 | 7.22° C | 99% | 1012.8 hPa | 0 mm | 0 m/s | 0 W/m² | - |
| 1778044518 | 7.22° C | 99% | 1012.6 hPa | 0 mm | 0 m/s | 0 W/m² | - |
| 1778043918 | 7.22° C | 99% | 1012.7 hPa | 0 mm | 0 m/s | 0 W/m² | - |
* Rain latest hour (hover to see other rain measurements)
** Current wind speed in m/s (hover to see current wind gust speed)